createdAt,value
2017-10-25T00:00:11.582Z,29.1
2017-10-25T00:01:13.524Z,29.1
2017-10-25T00:02:11.999Z,29.1
2017-10-25T00:03:13.325Z,29.1
2017-10-25T00:04:12.036Z,29.1
2017-10-25T00:05:11.785Z,29.1
2017-10-25T00:06:13.394Z,29.1
2017-10-25T00:07:13.422Z,29.1
2017-10-25T00:08:12.170Z,29.1
2017-10-25T00:09:12.189Z,29.1
2017-10-25T00:10:12.237Z,29.1
2017-10-25T00:11:13.564Z,29.1
2017-10-25T00:12:12.310Z,29.1
2017-10-25T00:13:13.703Z,29.1
2017-10-25T00:14:13.833Z,29.1
2017-10-25T00:15:14.101Z,29.1
2017-10-25T00:16:12.204Z,29.1
2017-10-25T00:17:13.830Z,29.2
2017-10-25T00:18:13.939Z,29.1
2017-10-25T00:19:14.248Z,29.2
2017-10-25T00:20:14.333Z,29.1
2017-10-25T00:21:13.999Z,29.1
2017-10-25T00:22:14.084Z,29.1
2017-10-25T00:23:14.116Z,29.1
2017-10-25T00:24:12.529Z,29.1
2017-10-25T00:25:14.536Z,29.1
2017-10-25T00:26:12.926Z,29.1
2017-10-25T00:27:14.369Z,29.1
2017-10-25T00:28:14.823Z,29.2
2017-10-25T00:29:13.143Z,29.2
2017-10-25T00:30:14.760Z,29.2
2017-10-25T00:31:14.416Z,29.2
2017-10-25T00:32:14.817Z,29.1
2017-10-25T00:33:13.160Z,29.1
2017-10-25T00:34:14.844Z,29.2
2017-10-25T00:35:12.975Z,29.1
2017-10-25T00:36:14.936Z,29.1
2017-10-25T00:37:13.400Z,29.1
2017-10-25T00:38:13.442Z,29.1
2017-10-25T00:39:13.514Z,29.1
2017-10-25T00:40:13.327Z,29.2
2017-10-25T00:41:15.223Z,29.1
2017-10-25T00:42:13.707Z,29.1
2017-10-25T00:43:13.491Z,29.1
2017-10-25T00:44:13.893Z,29.2
2017-10-25T00:45:13.505Z,29.2
2017-10-25T00:46:13.881Z,29.2
2017-10-25T00:47:15.288Z,29.2
2017-10-25T00:48:13.691Z,29.2
2017-10-25T00:49:13.945Z,29.2
2017-10-25T00:50:14.201Z,29.1
2017-10-25T00:51:15.837Z,29.1
2017-10-25T00:52:15.543Z,29.1
2017-10-25T00:53:14.280Z,29.1
2017-10-25T00:54:14.012Z,29.1
2017-10-25T00:55:16.043Z,29.1
2017-10-25T00:56:15.795Z,29.2
2017-10-25T00:57:14.474Z,29.1
2017-10-25T00:58:14.265Z,29.1
2017-10-25T00:59:15.908Z,29.1
2017-10-25T01:00:15.468Z,29.1
2017-10-25T01:01:15.975Z,29.1
2017-10-25T01:02:16.302Z,29.1
2017-10-25T01:03:14.751Z,29.1
2017-10-25T01:04:16.388Z,29.1
2017-10-25T01:05:14.757Z,29.1
2017-10-25T01:06:14.872Z,29.1
2017-10-25T01:07:16.530Z,29.1
2017-10-25T01:08:14.847Z,29.1
2017-10-25T01:09:16.233Z,29.1
2017-10-25T01:10:16.633Z,29.2
2017-10-25T01:11:14.678Z,29.2
2017-10-25T01:12:14.647Z,29.1
2017-10-25T01:13:16.365Z,29.2
2017-10-25T01:14:14.830Z,29.2
2017-10-25T01:15:16.438Z,29.2
2017-10-25T01:16:14.878Z,29.2
2017-10-25T01:17:14.933Z,29.2
2017-10-25T01:18:14.944Z,29.2
2017-10-25T01:19:16.656Z,29.2
2017-10-25T01:20:16.729Z,29.1
2017-10-25T01:21:15.505Z,29.2
2017-10-25T01:22:15.640Z,29.2
2017-10-25T01:23:16.963Z,29.2
2017-10-25T01:24:17.329Z,29.2
2017-10-25T01:25:17.030Z,29.2
2017-10-25T01:26:17.099Z,29.2
2017-10-25T01:27:17.457Z,29.1
2017-10-25T01:28:15.612Z,29.2
2017-10-25T01:29:15.684Z,29.2
2017-10-25T01:30:16.087Z,29.2
2017-10-25T01:31:16.286Z,29.2
2017-10-25T01:32:17.779Z,29.2
2017-10-25T01:33:17.827Z,29.2
2017-10-25T01:34:17.639Z,29.2
2017-10-25T01:35:17.604Z,29.2
2017-10-25T01:36:17.719Z,29.2
2017-10-25T01:37:17.786Z,29.2
2017-10-25T01:38:18.141Z,29.2
2017-10-25T01:39:17.813Z,29.2
2017-10-25T01:40:16.295Z,29.2
2017-10-25T01:41:16.661Z,29.2
2017-10-25T01:42:16.496Z,29.1
2017-10-25T01:43:16.790Z,29.1
2017-10-25T01:44:18.160Z,29.2
2017-10-25T01:45:18.588Z,29.2
2017-10-25T01:46:16.752Z,29.2
2017-10-25T01:47:18.385Z,29.2
2017-10-25T01:48:16.805Z,29.1
2017-10-25T01:49:18.761Z,29.2
2017-10-25T01:50:17.219Z,29.2
2017-10-25T01:51:17.225Z,29.2
2017-10-25T01:52:16.888Z,29.2
2017-10-25T01:53:17.214Z,29.1
2017-10-25T01:54:18.936Z,29.2
2017-10-25T01:55:17.374Z,29.2
2017-10-25T01:56:19.004Z,29.2
2017-10-25T01:57:18.730Z,29.2
2017-10-25T01:58:17.147Z,29.1
2017-10-25T01:59:19.175Z,29.2
2017-10-25T02:00:19.220Z,29.2
2017-10-25T02:01:19.274Z,29.2
2017-10-25T02:02:19.302Z,29.1
2017-10-25T02:03:17.430Z,29.2
2017-10-25T02:04:17.542Z,29.2
2017-10-25T02:05:19.150Z,29.2
2017-10-25T02:06:19.513Z,29.2
2017-10-25T02:07:19.470Z,29.2
2017-10-25T02:08:17.738Z,29.2
2017-10-25T02:09:19.357Z,29.2
2017-10-25T02:10:19.670Z,29.2
2017-10-25T02:11:19.437Z,29.2
2017-10-25T02:12:19.449Z,29.2
2017-10-25T02:13:18.241Z,29.1
2017-10-25T02:14:17.953Z,29.1
2017-10-25T02:15:19.980Z,29.1
2017-10-25T02:16:19.912Z,29.2
2017-10-25T02:17:19.988Z,29.2
2017-10-25T02:18:20.029Z,29.2
2017-10-25T02:19:19.649Z,29.2
2017-10-25T02:20:18.063Z,29.1
2017-10-25T02:21:18.145Z,29.1
2017-10-25T02:22:18.227Z,29.2
2017-10-25T02:23:18.305Z,29.1
2017-10-25T02:24:19.966Z,29.2
2017-10-25T02:25:20.060Z,29.1
2017-10-25T02:26:20.032Z,29.2
2017-10-25T02:27:20.534Z,29.1
2017-10-25T02:28:18.854Z,29.1
2017-10-25T02:29:18.883Z,29.1
2017-10-25T02:30:18.674Z,29.2
2017-10-25T02:31:18.967Z,29.2
2017-10-25T02:32:20.358Z,29.2
2017-10-25T02:33:20.423Z,29.2
2017-10-25T02:34:18.877Z,29.2
2017-10-25T02:35:20.837Z,29.1
2017-10-25T02:36:19.227Z,29.2
2017-10-25T02:37:20.614Z,29.2
2017-10-25T02:38:20.664Z,29.2
2017-10-25T02:39:21.033Z,29.1
2017-10-25T02:40:21.087Z,29.1
2017-10-25T02:41:19.230Z,29.1
2017-10-25T02:42:19.298Z,29.1
2017-10-25T02:43:20.840Z,29.1
2017-10-25T02:44:19.598Z,29.1
2017-10-25T02:45:21.314Z,29.2
2017-10-25T02:46:21.010Z,29.2
2017-10-25T02:47:21.379Z,29.2
2017-10-25T02:48:19.770Z,29.2
2017-10-25T02:49:19.892Z,29.1
2017-10-25T02:50:19.642Z,29.1
2017-10-25T02:51:21.241Z,29.1
2017-10-25T02:52:21.307Z,29.2
2017-10-25T02:53:21.338Z,29.1
2017-10-25T02:54:20.035Z,29.1
2017-10-25T02:55:19.851Z,29.1
2017-10-25T02:56:21.528Z,29.1
2017-10-25T02:57:21.876Z,29.1
2017-10-25T02:58:20.009Z,29.2
2017-10-25T02:59:21.969Z,29.1
2017-10-25T03:00:22.000Z,29.1
2017-10-25T03:01:20.928Z,29.1
2017-10-25T03:02:22.060Z,29.1
2017-10-25T03:03:20.209Z,29.1
2017-10-25T03:04:20.510Z,29.1
2017-10-25T03:05:20.211Z,29.1
2017-10-25T03:06:21.934Z,29.2
2017-10-25T03:07:20.688Z,29.2
2017-10-25T03:08:20.451Z,29.2
2017-10-25T03:09:22.205Z,29.2
2017-10-25T03:10:22.551Z,29.2
2017-10-25T03:11:20.880Z,29.2
2017-10-25T03:12:21.024Z,29.2
2017-10-25T03:13:20.775Z,29.2
2017-10-25T03:14:20.780Z,29.2
2017-10-25T03:15:21.163Z,29.2
2017-10-25T03:16:21.148Z,29.2
2017-10-25T03:17:22.874Z,29.2
2017-10-25T03:18:23.004Z,29.2
2017-10-25T03:19:22.960Z,29.2
2017-10-25T03:20:21.085Z,29.2
2017-10-25T03:21:21.157Z,29.2
2017-10-25T03:22:21.141Z,29.2
2017-10-25T03:23:23.186Z,29.2
2017-10-25T03:24:22.877Z,29.2
2017-10-25T03:25:23.278Z,29.2
2017-10-25T03:26:23.406Z,29.2
2017-10-25T03:27:21.821Z,29.1
2017-10-25T03:28:21.838Z,29.1
2017-10-25T03:29:21.878Z,29.2
2017-10-25T03:30:23.195Z,29.2
2017-10-25T03:31:21.871Z,29.2
2017-10-25T03:32:23.345Z,29.2
2017-10-25T03:33:22.049Z,29.2
2017-10-25T03:34:21.851Z,29.2
2017-10-25T03:35:22.184Z,29.2
2017-10-25T03:36:21.901Z,29.2
2017-10-25T03:37:22.319Z,29.2
2017-10-25T03:38:23.924Z,29.2
2017-10-25T03:39:23.707Z,29.2
2017-10-25T03:40:27.603Z,29.2
2017-10-25T03:41:22.556Z,29.2
2017-10-25T03:42:24.143Z,29.2
2017-10-25T03:43:22.691Z,29.2
2017-10-25T03:44:22.343Z,29.2
2017-10-25T03:45:24.049Z,29.2
2017-10-25T03:46:22.805Z,29.2
2017-10-25T03:47:22.545Z,29.2
2017-10-25T03:48:24.587Z,29.2
2017-10-25T03:49:24.554Z,29.2
2017-10-25T03:50:22.948Z,29.2
2017-10-25T03:51:23.086Z,29.2
2017-10-25T03:52:23.117Z,29.2
2017-10-25T03:53:22.813Z,29.2
2017-10-25T03:54:24.461Z,29.2
2017-10-25T03:55:24.500Z,29.2
2017-10-25T03:56:24.576Z,29.2
2017-10-25T03:57:23.263Z,29.2
2017-10-25T03:58:23.354Z,29.2
2017-10-25T03:59:23.133Z,29.2
2017-10-25T04:00:25.153Z,29.2
2017-10-25T04:01:23.230Z,29.2
2017-10-25T04:02:24.933Z,29.2
2017-10-25T04:03:24.976Z,29.2
2017-10-25T04:04:23.491Z,29.2
2017-10-25T04:05:23.561Z,29.2
2017-10-25T04:06:25.593Z,29.2
2017-10-25T04:07:25.242Z,29.2
2017-10-25T04:08:25.610Z,29.2
2017-10-25T04:09:25.372Z,29.2
2017-10-25T04:10:24.058Z,29.2
2017-10-25T04:11:25.352Z,29.2
2017-10-25T04:12:25.531Z,29.2
2017-10-25T04:13:24.218Z,29.2
2017-10-25T04:14:24.204Z,29.2
2017-10-25T04:15:23.940Z,29.2
2017-10-25T04:16:24.019Z,29.2
2017-10-25T04:17:25.959Z,29.2
2017-10-25T04:18:24.382Z,29.2
2017-10-25T04:19:26.047Z,29.2
2017-10-25T04:20:24.269Z,29.2
2017-10-25T04:21:24.573Z,29.2
2017-10-25T04:22:24.717Z,29.2
2017-10-25T04:23:26.272Z,29.2
2017-10-25T04:24:26.044Z,29.2
2017-10-25T04:25:24.461Z,29.2
2017-10-25T04:26:24.493Z,29.2
2017-10-25T04:27:24.582Z,29.2
2017-10-25T04:28:26.223Z,29.2
2017-10-25T04:29:25.072Z,29.2
2017-10-25T04:30:26.384Z,29.2
2017-10-25T04:31:24.877Z,29.2
2017-10-25T04:32:25.130Z,29.2
2017-10-25T04:33:26.392Z,29.2
2017-10-25T04:34:26.505Z,29.2
2017-10-25T04:35:26.862Z,29.2
2017-10-25T04:36:24.989Z,29.2
2017-10-25T04:37:26.701Z,29.2
2017-10-25T04:38:26.751Z,29.2
2017-10-25T04:39:27.096Z,29.2
2017-10-25T04:40:26.824Z,29.2
2017-10-25T04:41:26.930Z,29.2
2017-10-25T04:42:25.652Z,29.2
2017-10-25T04:43:25.655Z,29.2
2017-10-25T04:44:25.925Z,29.2
2017-10-25T04:45:27.410Z,29.2
2017-10-25T04:46:27.806Z,29.2
2017-10-25T04:47:25.995Z,29.2
2017-10-25T04:48:27.642Z,29.2
2017-10-25T04:49:27.707Z,29.2
2017-10-25T04:50:27.807Z,29.2
2017-10-25T04:51:28.166Z,29.2
2017-10-25T04:52:28.187Z,29.2
2017-10-25T04:53:27.865Z,29.2
2017-10-25T04:54:28.060Z,29.2
2017-10-25T04:55:26.821Z,29.2
2017-10-25T04:56:28.105Z,29.2
2017-10-25T04:57:28.084Z,29.2
2017-10-25T04:58:28.435Z,29.2
2017-10-25T04:59:28.184Z,29.2
2017-10-25T05:00:26.993Z,29.2
2017-10-25T05:01:26.920Z,29.2
2017-10-25T05:02:26.819Z,29.2
2017-10-25T05:03:27.299Z,29.2
2017-10-25T05:04:27.210Z,29.2
2017-10-25T05:05:26.694Z,29.2
2017-10-25T05:06:27.005Z,29.2
2017-10-25T05:07:29.052Z,29.2
2017-10-25T05:08:28.673Z,29.2
2017-10-25T05:09:29.108Z,29.2
2017-10-25T05:10:26.888Z,29.2
2017-10-25T05:11:28.537Z,29.2
2017-10-25T05:12:27.273Z,29.3
2017-10-25T05:13:27.333Z,29.3
2017-10-25T05:14:27.452Z,29.3
2017-10-25T05:15:29.125Z,29.3
2017-10-25T05:16:29.124Z,29.3
2017-10-25T05:17:27.614Z,29.3
2017-10-25T05:18:28.570Z,29.3
2017-10-25T05:19:27.590Z,29.3
2017-10-25T05:20:30.979Z,29.3
2017-10-25T05:21:27.753Z,29.3
2017-10-25T05:22:27.841Z,29.3
2017-10-25T05:23:29.224Z,29.3
2017-10-25T05:24:29.364Z,29.3
2017-10-25T05:25:27.713Z,29.3
2017-10-25T05:26:28.048Z,29.3
2017-10-25T05:27:29.426Z,29.3
2017-10-25T05:28:27.860Z,29.3
2017-10-25T05:29:28.231Z,29.3
2017-10-25T05:30:28.281Z,29.3
2017-10-25T05:31:29.938Z,29.3
2017-10-25T05:32:29.759Z,29.3
2017-10-25T05:33:28.516Z,29.3
2017-10-25T05:34:30.210Z,29.3
2017-10-25T05:35:30.308Z,29.3
2017-10-25T05:36:30.301Z,29.3
2017-10-25T05:37:28.725Z,29.3
2017-10-25T05:38:30.388Z,29.3
2017-10-25T05:39:28.834Z,29.3
2017-10-25T05:40:30.154Z,29.3
2017-10-25T05:41:28.579Z,29.3
2017-10-25T05:42:30.524Z,29.3
2017-10-25T05:43:30.581Z,29.3
2017-10-25T05:44:30.626Z,29.3
2017-10-25T05:45:30.685Z,29.4
2017-10-25T05:46:29.154Z,29.4
2017-10-25T05:47:30.456Z,29.4
2017-10-25T05:48:30.615Z,29.3
2017-10-25T05:49:30.852Z,29.3
2017-10-25T05:50:29.314Z,29.3
2017-10-25T05:51:30.943Z,29.3
2017-10-25T05:52:29.422Z,29.3
2017-10-25T05:53:30.786Z,29.3
2017-10-25T05:54:30.829Z,29.3
2017-10-25T05:55:30.902Z,29.3
2017-10-25T05:56:31.276Z,29.4
2017-10-25T05:57:31.331Z,29.4
2017-10-25T05:58:29.668Z,29.4
2017-10-25T05:59:29.737Z,29.4
2017-10-25T06:00:31.393Z,29.4
2017-10-25T06:01:29.542Z,29.4
2017-10-25T06:02:29.522Z,29.4
2017-10-25T06:03:29.633Z,29.4
2017-10-25T06:04:31.295Z,29.4
2017-10-25T06:05:30.131Z,29.4
2017-10-25T06:06:31.448Z,29.4
2017-10-25T06:07:30.214Z,29.4
2017-10-25T06:08:30.196Z,29.4
2017-10-25T06:09:30.323Z,29.4
2017-10-25T06:10:31.937Z,29.4
2017-10-25T06:11:31.896Z,29.4
2017-10-25T06:12:31.937Z,29.3
2017-10-25T06:13:31.902Z,29.3
2017-10-25T06:14:30.129Z,29.3
2017-10-25T06:15:32.039Z,29.3
2017-10-25T06:16:30.278Z,29.4
2017-10-25T06:17:30.363Z,29.4
2017-10-25T06:18:32.234Z,29.4
2017-10-25T06:19:30.631Z,29.5
2017-10-25T06:20:30.622Z,29.5
2017-10-25T06:21:32.062Z,29.4
2017-10-25T06:22:32.123Z,29.4
2017-10-25T06:23:32.198Z,29.4
2017-10-25T06:24:32.526Z,29.4
2017-10-25T06:25:32.284Z,29.4
2017-10-25T06:26:30.753Z,29.4
2017-10-25T06:27:31.091Z,29.3
2017-10-25T06:28:32.842Z,29.3
2017-10-25T06:29:31.378Z,29.3
2017-10-25T06:30:32.637Z,29.3
2017-10-25T06:31:33.055Z,29.2
2017-10-25T06:32:31.158Z,29.2
2017-10-25T06:33:31.601Z,29.2
2017-10-25T06:34:31.671Z,29.3
2017-10-25T06:35:31.393Z,29.2
2017-10-25T06:36:33.388Z,29.2
2017-10-25T06:37:33.399Z,29.2
2017-10-25T06:38:33.125Z,29.2
2017-10-25T06:39:32.025Z,29.2
2017-10-25T06:40:33.245Z,29.2
2017-10-25T06:41:31.980Z,29.3
2017-10-25T06:42:32.372Z,29.3
2017-10-25T06:43:34.730Z,29.3
2017-10-25T06:44:35.329Z,29.3
2017-10-25T06:45:33.186Z,29.3
2017-10-25T06:46:38.105Z,29.4
2017-10-25T06:47:37.361Z,29.4
2017-10-25T06:48:35.858Z,29.4
2017-10-25T06:49:35.552Z,29.4
2017-10-25T06:50:36.883Z,29.4
2017-10-25T06:51:35.721Z,29.5
2017-10-25T06:52:37.016Z,29.5
2017-10-25T06:53:34.934Z,29.6
2017-10-25T06:54:32.556Z,29.6
2017-10-25T06:55:39.145Z,29.6
2017-10-25T06:56:33.112Z,29.6
2017-10-25T06:57:38.181Z,29.6
2017-10-25T06:58:38.893Z,29.6
2017-10-25T06:59:37.368Z,29.6
2017-10-25T07:00:34.271Z,29.6
2017-10-25T07:01:36.698Z,29.6
2017-10-25T07:02:38.204Z,29.7
2017-10-25T07:03:37.088Z,29.7
2017-10-25T07:04:36.133Z,29.7
2017-10-25T07:05:33.153Z,29.7
2017-10-25T07:06:34.905Z,29.7
2017-10-25T07:07:34.825Z,29.7
2017-10-25T07:08:35.081Z,29.7
2017-10-25T07:09:33.644Z,29.8
2017-10-25T07:10:37.335Z,29.9
2017-10-25T07:11:35.106Z,30
2017-10-25T07:12:33.609Z,30
2017-10-25T07:13:35.459Z,30
2017-10-25T07:14:33.508Z,30
2017-10-25T07:15:33.781Z,30
2017-10-25T07:16:34.141Z,30.1
2017-10-25T07:19:26.533Z,30.2
2017-10-25T07:20:26.111Z,30.2
2017-10-25T07:21:26.244Z,30.2
2017-10-25T07:22:24.600Z,30.2
2017-10-25T07:23:24.548Z,30.2
2017-10-25T07:24:26.628Z,30.2
2017-10-25T07:25:25.057Z,30.2
2017-10-25T07:26:25.150Z,30.2
2017-10-25T07:27:26.454Z,30.2
2017-10-25T07:28:25.381Z,30.2
2017-10-25T07:29:26.610Z,30.1
2017-10-25T07:30:25.299Z,30.1
2017-10-25T07:31:26.750Z,30.1
2017-10-25T07:32:25.122Z,30
2017-10-25T07:33:27.087Z,30
2017-10-25T07:34:27.091Z,30
2017-10-25T07:35:25.488Z,30
2017-10-25T07:36:27.249Z,30
2017-10-25T07:37:27.003Z,30.1
2017-10-25T07:38:25.470Z,30.1
2017-10-25T07:39:27.239Z,30.1
2017-10-25T07:40:25.774Z,30.2
2017-10-25T07:41:25.974Z,30.2
2017-10-25T07:42:25.936Z,30.2
2017-10-25T07:43:26.050Z,30.3
2017-10-25T07:44:25.774Z,30.3
2017-10-25T07:45:26.103Z,30.3
2017-10-25T07:46:25.841Z,30.2
2017-10-25T07:47:27.748Z,30.2
2017-10-25T07:48:26.279Z,30.3
2017-10-25T07:49:25.998Z,30.3
2017-10-25T07:50:29.883Z,30.4
2017-10-25T07:51:28.206Z,30.4
2017-10-25T07:52:27.673Z,30.5
2017-10-25T07:53:29.493Z,30.6
2017-10-25T07:54:26.468Z,30.7
2017-10-25T07:55:26.533Z,30.8
2017-10-25T07:56:28.105Z,30.8
2017-10-25T07:57:26.291Z,30.6
2017-10-25T07:58:28.305Z,30.8
2017-10-25T07:59:27.991Z,30.9
2017-10-25T08:00:28.489Z,30.9
2017-10-25T08:01:26.687Z,30.9
2017-10-25T08:02:28.556Z,30.9
2017-10-25T08:03:28.719Z,30.9
2017-10-25T08:04:27.029Z,31
2017-10-25T08:05:27.130Z,31
2017-10-25T08:06:27.139Z,31
2017-10-25T08:07:27.222Z,31
2017-10-25T08:08:27.123Z,31
2017-10-25T08:09:28.912Z,31
2017-10-25T08:10:29.037Z,31
2017-10-25T08:11:29.034Z,31.1
2017-10-25T08:12:29.023Z,31.1
2017-10-25T08:13:27.276Z,31.2
2017-10-25T08:14:29.517Z,31.2
2017-10-25T08:15:27.750Z,31.2
2017-10-25T08:16:29.108Z,31.2
2017-10-25T08:17:29.492Z,31.2
2017-10-25T08:18:29.528Z,31.3
2017-10-25T08:19:30.897Z,31.4
2017-10-25T08:20:27.544Z,31.4
2017-10-25T08:21:29.208Z,31.5
2017-10-25T08:22:28.002Z,31.5
2017-10-25T08:23:27.674Z,31.6
2017-10-25T08:24:28.044Z,31.7
2017-10-25T08:25:29.240Z,31.8
2017-10-25T08:26:29.263Z,31.9
2017-10-25T08:27:29.399Z,31.6
2017-10-25T08:28:29.688Z,32
2017-10-25T08:29:29.825Z,32.1
2017-10-25T08:30:28.290Z,32.1
2017-10-25T08:31:27.981Z,32.1
2017-10-25T08:32:30.117Z,32.1
2017-10-25T08:33:28.441Z,32.2
2017-10-25T08:34:30.064Z,32.2
2017-10-25T08:35:28.171Z,32.3
2017-10-25T08:36:29.605Z,32.3
2017-10-25T08:37:30.298Z,32.3
2017-10-25T08:38:30.524Z,32.4
2017-10-25T08:39:30.000Z,32.4
2017-10-25T08:40:30.285Z,32.4
2017-10-25T08:41:28.776Z,32.4
2017-10-25T08:42:30.515Z,32.3
2017-10-25T08:43:30.860Z,32.3
2017-10-25T08:44:28.920Z,32.3
2017-10-25T08:45:28.648Z,32.2
2017-10-25T08:46:28.815Z,32.2
2017-10-25T08:47:28.739Z,32.2
2017-10-25T08:48:30.542Z,32.1
2017-10-25T08:49:29.072Z,32.2
2017-10-25T08:50:31.459Z,32.2
2017-10-25T08:51:31.476Z,32.2
2017-10-25T08:52:30.755Z,32.2
2017-10-25T08:53:29.350Z,32.1
2017-10-25T08:54:33.894Z,32.2
2017-10-25T08:55:30.860Z,32.2
2017-10-25T08:56:29.447Z,32.3
2017-10-25T08:57:31.336Z,32.3
2017-10-25T08:58:31.226Z,32.3
2017-10-25T08:59:29.359Z,32.3
2017-10-25T09:00:29.959Z,32.3
2017-10-25T09:01:29.569Z,32.3
2017-10-25T09:02:29.790Z,32.3
2017-10-25T09:03:31.456Z,32.3
2017-10-25T09:04:37.428Z,32.3
2017-10-25T09:05:29.731Z,32.3
2017-10-25T09:06:33.578Z,32.3
2017-10-25T09:07:31.732Z,32.3
2017-10-25T09:08:30.082Z,32.4
2017-10-25T09:09:35.189Z,32.3
2017-10-25T09:10:31.485Z,32.3
2017-10-25T09:11:32.121Z,32.3
2017-10-25T09:12:30.351Z,32.3
2017-10-25T09:13:31.681Z,32.3
2017-10-25T09:14:31.810Z,32.3
2017-10-25T09:15:30.419Z,32.2
2017-10-25T09:16:31.833Z,32.2
2017-10-25T09:17:32.225Z,32.2
2017-10-25T09:18:32.212Z,32.1
2017-10-25T09:19:30.659Z,32.1
2017-10-25T09:20:32.364Z,32.2
2017-10-25T09:21:32.090Z,32.2
2017-10-25T09:22:32.620Z,32.2
2017-10-25T09:23:32.664Z,32.2
2017-10-25T09:24:32.749Z,32.2
2017-10-25T09:25:32.827Z,32.2
2017-10-25T09:26:32.761Z,32.2
2017-10-25T09:27:31.265Z,32.2
2017-10-25T09:28:30.982Z,32.2
2017-10-25T09:29:33.371Z,32.2
2017-10-25T09:30:32.602Z,32.2
2017-10-25T09:31:33.044Z,32.1
2017-10-25T09:32:32.640Z,32.1
2017-10-25T09:33:33.062Z,32.1
2017-10-25T09:34:33.227Z,32.1
2017-10-25T09:35:31.503Z,32.1
2017-10-25T09:36:31.490Z,32.1
2017-10-25T09:37:31.600Z,32.1
2017-10-25T09:38:33.087Z,32.1
2017-10-25T09:39:33.704Z,32.1
2017-10-25T09:40:33.159Z,32.2
2017-10-25T09:41:31.683Z,32.2
2017-10-25T09:42:33.311Z,32.2
2017-10-25T09:43:31.773Z,32.3
2017-10-25T09:44:33.757Z,32.3
2017-10-25T09:45:33.497Z,32.3
2017-10-25T09:46:33.834Z,32.4
2017-10-25T09:47:33.897Z,32.4
2017-10-25T09:48:33.601Z,32.4
2017-10-25T09:49:33.881Z,32.4
2017-10-25T09:50:34.295Z,32.4
2017-10-25T09:51:32.102Z,32.4
2017-10-25T09:52:34.000Z,32.4
2017-10-25T09:53:34.193Z,32.4
2017-10-25T09:54:32.535Z,32.4
2017-10-25T09:55:34.219Z,32.4
2017-10-25T09:56:34.218Z,32.3
2017-10-25T09:57:32.520Z,32.3
2017-10-25T09:58:34.406Z,32.3
2017-10-25T09:59:34.367Z,32.2
2017-10-25T10:00:34.423Z,32.2
2017-10-25T10:01:32.517Z,32.2
2017-10-25T10:02:32.618Z,32.1
2017-10-25T10:03:32.798Z,31.9
2017-10-25T10:04:34.845Z,31.8
2017-10-25T10:05:33.011Z,31.6
2017-10-25T10:06:34.326Z,31.4
2017-10-25T10:07:34.863Z,31.1
2017-10-25T10:08:35.833Z,30.9
2017-10-25T10:09:34.604Z,30.8
2017-10-25T10:10:33.441Z,30.5
2017-10-25T10:11:35.449Z,30.3
2017-10-25T10:12:33.688Z,30.2
2017-10-25T10:13:32.988Z,30
2017-10-25T10:14:34.935Z,29.9
2017-10-25T10:15:35.043Z,29.7
2017-10-25T10:16:34.961Z,29.5
2017-10-25T10:17:33.766Z,29.4
2017-10-25T10:18:34.593Z,29.3
2017-10-25T10:19:35.735Z,29.3
2017-10-25T10:20:33.911Z,29.3
2017-10-25T10:21:35.662Z,29.3
2017-10-25T10:22:34.650Z,29.2
2017-10-25T10:23:35.727Z,29.2
2017-10-25T10:24:36.011Z,29.2
2017-10-25T10:25:35.352Z,29
2017-10-25T10:26:35.634Z,29
2017-10-25T10:27:35.882Z,29
2017-10-25T10:28:34.001Z,29
2017-10-25T10:29:35.654Z,29
2017-10-25T10:30:34.187Z,28.9
2017-10-25T10:31:36.993Z,28.9
2017-10-25T10:32:35.268Z,28.8
2017-10-25T10:33:35.921Z,28.7
2017-10-25T10:34:35.180Z,28.7
2017-10-25T10:35:34.668Z,28.7
2017-10-25T10:37:20.175Z,28.5
2017-10-25T10:38:21.885Z,28.4
2017-10-25T10:39:19.964Z,28.4
2017-10-25T10:40:22.218Z,28.3
2017-10-25T10:41:22.000Z,28.3
2017-10-25T10:42:20.665Z,28.2
2017-10-25T10:43:23.431Z,28.1
2017-10-25T10:44:20.384Z,28
2017-10-25T10:45:21.824Z,28
2017-10-25T10:46:22.115Z,27.9
2017-10-25T10:47:20.592Z,27.9
2017-10-25T10:48:22.545Z,27.9
2017-10-25T10:49:20.557Z,27.9
2017-10-25T10:50:22.704Z,28
2017-10-25T10:51:21.793Z,27.9
2017-10-25T10:52:21.142Z,28
2017-10-25T10:53:22.649Z,27.9
2017-10-25T10:54:22.441Z,27.9
2017-10-25T10:55:20.697Z,27.9
2017-10-25T10:56:20.760Z,27.9
2017-10-25T10:57:20.784Z,27.9
2017-10-25T10:58:20.839Z,27.9
2017-10-25T10:59:20.906Z,27.8
2017-10-25T11:00:21.289Z,27.8
2017-10-25T11:01:22.849Z,27.8
2017-10-25T11:02:22.637Z,27.7
2017-10-25T11:03:22.930Z,27.7
2017-10-25T11:04:21.314Z,27.7
2017-10-25T11:05:21.538Z,27.7
2017-10-25T11:06:21.664Z,27.7
2017-10-25T11:07:21.377Z,27.7
2017-10-25T11:08:22.939Z,27.6
2017-10-25T11:09:23.696Z,27.6
2017-10-25T11:10:21.385Z,27.6
2017-10-25T11:11:21.578Z,27.6
2017-10-25T11:12:23.400Z,27.6
2017-10-25T11:13:21.717Z,27.6
2017-10-25T11:14:24.181Z,27.6
2017-10-25T11:15:22.027Z,27.7
2017-10-25T11:16:22.026Z,27.7
2017-10-25T11:17:22.003Z,27.7
2017-10-25T11:18:23.652Z,27.7
2017-10-25T11:19:23.696Z,27.6
2017-10-25T11:20:23.575Z,27.6
2017-10-25T11:21:23.659Z,27.6
2017-10-25T11:22:23.358Z,27.6
2017-10-25T11:23:23.969Z,27.7
2017-10-25T11:24:23.629Z,27.7
2017-10-25T11:25:22.088Z,27.7
2017-10-25T11:26:22.512Z,27.7
2017-10-25T11:27:23.694Z,27.7
2017-10-25T11:28:24.035Z,27.7
2017-10-25T11:29:24.136Z,27.8
2017-10-25T11:30:22.473Z,27.8
2017-10-25T11:31:23.854Z,27.8
2017-10-25T11:32:23.795Z,27.9
2017-10-25T11:33:23.870Z,27.8
2017-10-25T11:34:23.820Z,27.9
2017-10-25T11:35:22.564Z,27.9
2017-10-25T11:36:24.478Z,28
2017-10-25T11:37:23.133Z,28
2017-10-25T11:38:24.349Z,28
2017-10-25T11:39:23.028Z,28
2017-10-25T11:40:24.481Z,28
2017-10-25T11:41:24.816Z,28
2017-10-25T11:42:23.100Z,27.9
2017-10-25T11:43:24.532Z,27.8
2017-10-25T11:44:24.595Z,27.7
2017-10-25T11:45:22.974Z,27.7
2017-10-25T11:46:25.046Z,27.6
2017-10-25T11:47:23.405Z,27.5
2017-10-25T11:48:23.124Z,27.5
2017-10-25T11:49:23.538Z,27.4
2017-10-25T11:50:24.915Z,27.4
2017-10-25T11:51:25.365Z,27.4
2017-10-25T11:52:25.116Z,27.4
2017-10-25T11:53:24.931Z,27.4
2017-10-25T11:54:25.335Z,27.4
2017-10-25T11:55:23.763Z,27.5
2017-10-25T11:56:25.157Z,27.5
2017-10-25T11:57:25.616Z,27.5
2017-10-25T11:58:25.293Z,27.5
2017-10-25T11:59:25.344Z,27.6
2017-10-25T12:00:25.460Z,27.6
2017-10-25T12:01:23.882Z,27.6
2017-10-25T12:02:25.852Z,27.6
2017-10-25T12:03:24.100Z,27.6
2017-10-25T12:04:25.581Z,27.6
2017-10-25T12:05:25.844Z,27.6
2017-10-25T12:06:24.219Z,27.6
2017-10-25T12:07:24.619Z,27.6
2017-10-25T12:08:26.262Z,27.6
2017-10-25T12:09:27.017Z,27.6
2017-10-25T12:10:25.998Z,27.6
2017-10-25T12:11:24.591Z,27.6
2017-10-25T12:12:24.697Z,27.6
2017-10-25T12:13:24.510Z,27.6
2017-10-25T12:14:24.922Z,27.6
2017-10-25T12:15:24.755Z,27.6
2017-10-25T12:16:25.058Z,27.6
2017-10-25T12:17:24.955Z,27.6
2017-10-25T12:18:25.101Z,27.5
2017-10-25T12:19:26.817Z,27.6
2017-10-25T12:20:25.152Z,27.5
2017-10-25T12:21:26.420Z,27.5
2017-10-25T12:22:24.880Z,27.5
2017-10-25T12:23:25.351Z,27.5
2017-10-25T12:24:26.612Z,27.5
2017-10-25T12:25:26.635Z,27.5
2017-10-25T12:26:25.767Z,27.5
2017-10-25T12:27:26.854Z,27.5
2017-10-25T12:28:26.853Z,27.5
2017-10-25T12:29:25.560Z,27.5
2017-10-25T12:30:28.243Z,27.5
2017-10-25T12:31:25.353Z,27.5
2017-10-25T12:32:25.488Z,27.5
2017-10-25T12:33:25.798Z,27.4
2017-10-25T12:34:26.174Z,27.5
2017-10-25T12:35:28.067Z,27.4
2017-10-25T12:36:27.222Z,27.4
2017-10-25T12:37:25.914Z,27.4
2017-10-25T12:38:28.962Z,27.4
2017-10-25T12:39:27.876Z,27.4
2017-10-25T12:40:26.196Z,27.4
2017-10-25T12:41:26.743Z,27.5
2017-10-25T12:42:28.902Z,27.5
2017-10-25T12:43:28.604Z,27.5
2017-10-25T12:44:28.648Z,27.5
2017-10-25T12:45:26.357Z,27.5
2017-10-25T12:46:27.970Z,27.6
2017-10-25T12:47:29.356Z,27.5
2017-10-25T12:48:26.626Z,27.5
2017-10-25T12:49:28.502Z,27.5
2017-10-25T12:50:26.679Z,27.5
2017-10-25T12:51:26.298Z,27.5
2017-10-25T12:52:28.161Z,27.4
2017-10-25T12:53:26.568Z,27.5
2017-10-25T12:54:28.861Z,27.5
2017-10-25T12:55:26.602Z,27.4
2017-10-25T12:56:28.279Z,27.5
2017-10-25T12:57:26.368Z,27.5
2017-10-25T12:58:26.404Z,27.6
2017-10-25T12:59:28.765Z,27.8
2017-10-25T13:00:26.610Z,27.9
2017-10-25T13:01:26.466Z,28
2017-10-25T13:02:28.240Z,28.2
2017-10-25T13:03:26.986Z,28.3
2017-10-25T13:04:26.776Z,28.4
2017-10-25T13:05:28.306Z,28.5
2017-10-25T13:06:27.062Z,28.6
2017-10-25T13:07:28.473Z,28.7
2017-10-25T13:08:26.872Z,28.7
2017-10-25T13:09:27.285Z,28.9
2017-10-25T13:10:27.393Z,28.9
2017-10-25T13:11:27.480Z,29
2017-10-25T13:12:27.462Z,29.1
2017-10-25T13:13:28.845Z,29.1
2017-10-25T13:14:29.182Z,29.2
2017-10-25T13:15:28.919Z,29.2
2017-10-25T13:16:28.870Z,29.3
2017-10-25T13:17:29.229Z,29.3
2017-10-25T13:18:29.185Z,29.4
2017-10-25T13:19:28.953Z,29.4
2017-10-25T13:20:27.583Z,29.4
2017-10-25T13:21:27.715Z,29.4
2017-10-25T13:22:27.454Z,29.5
2017-10-25T13:23:27.528Z,29.5